Hong Xiang 2 — BYBA — position and weather

sailwx.info

Track history (hours):
 
Tides and Currents Weather Stations Pressure Air Temp Water Temp Dewpoint Dewpoint Depression Visibility Wind Speed Wind Dir Waves Ship Positions

Hong Xiang 2

Last reported at 2014-Dec-18 23:31 UTC. Time now 2014-Dec-19 06:32 UTC.
Position N 24°53' E 119°10'.

Length 96 m; draft 4.8 m.

Type: Ship (hazmat cat A). MMSI: 413413000.

Date/timePositionNaut miles runAvg speedWind from/ knotsBaromVisibWave heightAir tempDewpointWater temp
2014-Dec-18 23:31N 24°53' E 119°10'9 9.8
2014-Dec-18 22:33N 24°47' E 119°02'1010.2
2014-Dec-18 21:33N 24°40' E 118°54'2210.3
2014-Dec-18 19:24N 24°25' E 118°36'910.2
2014-Dec-18 18:31N 24°19' E 118°29'10 9.8
2014-Dec-18 17:29N 24°12' E 118°21'8 8.7
2014-Dec-18 16:33N 24°06' E 118°14'8 8.0
2014-Dec-18 15:33N 24°02' E 118°07'8 7.6
2014-Dec-18 14:33N 23°57' E 118°01'7 7.4
2014-Dec-18 13:33N 23°52' E 117°54'8 7.6
2014-Dec-18 12:32N 23°48' E 117°47'8 8.1
2014-Dec-18 11:33N 23°43' E 117°41'11 8.6
2014-Dec-18 10:19N 23°36' E 117°32'33 8.7
2014-Dec-18 06:32N 23°20' E 117°01'8 8.1
2014-Dec-18 05:33N 23°15' E 116°54'7 7.4
2014-Dec-18 04:33N 23°10' E 116°47'9 7.2
2014-Dec-18 03:22N 23°04' E 116°41'132 8.3
2014-Dec-17 11:27N 22°11' E 114°30'9 9.1
2014-Dec-17 10:30N 22°08' E 114°22'  
2014-Dec-14 08:33N 22°09' E 113°52'9 9.2
2014-Dec-14 07:33N 22°17' E 113°48'10 9.6
2014-Dec-14 06:33N 22°26' E 113°45'2210.4
2014-Dec-14 04:25N 22°47' E 113°38'910.2
2014-Dec-14 03:33N 22°55' E 113°34'2 2.1
2014-Dec-14 02:33N 22°57' E 113°33'0 0.0
2014-Dec-13 21:09N 22°57' E 113°33'0 0.0
2014-Dec-13 18:33N 22°57' E 113°33'0 0.0
2014-Dec-13 16:33N 22°57' E 113°33'0 0.0
2014-Dec-13 15:15N 22°57' E 113°33'0 0.0
2014-Dec-13 14:33N 22°57' E 113°33'0 0.0
2014-Dec-13 04:34N 22°57' E 113°33'2 2.4
2014-Dec-13 03:33N 22°55' E 113°34'7 7.0
2014-Dec-13 02:33N 22°48' E 113°36'16 7.9
2014-Dec-13 00:28N 22°33' E 113°44'7 7.8
2014-Dec-12 23:33N 22°26' E 113°45'8 7.9
2014-Dec-12 22:33N 22°19' E 113°48'8 7.9
2014-Dec-12 21:33N 22°11' E 113°50'9 9.2
2014-Dec-12 20:32N 22°09' E 114°00'15610.8
2014-Dec-12 06:10N 22°59' E 116°40'6 8.9
2014-Dec-12 05:32N 23°01' E 116°45'19 6.0
2014-Dec-12 02:26N 23°12' E 117°02'41 2.9
2014-Dec-11 12:30N 23°36' E 117°38'1111.6
2014-Dec-11 11:32N 23°43' E 117°47'1211.8
2014-Dec-11 10:33N 23°51' E 117°56'1212.1
2014-Dec-11 09:33N 23°59' E 118°06'1312.6
2014-Dec-11 08:33N 24°07' E 118°16'1412.1
2014-Dec-11 07:24N 24°17' E 118°27'2611.8
2014-Dec-11 05:11N 24°34' E 118°49'711.4
2014-Dec-11 04:33N 24°39' E 118°55'1111.2
2014-Dec-11 03:33N 24°47' E 119°04'340 7.6
2014-Dec-09 06:33N 29°37' E 122°24'1110.4
2014-Dec-09 05:32N 29°47' E 122°28'14 9.9
2014-Dec-09 04:08N 29°60' E 122°33'5 8.2
2014-Dec-09 03:29N 30°05' E 122°35'  
Track history (hours):
 
Tides and Currents Weather Stations Pressure Air Temp Water Temp Dewpoint Dewpoint Depression Visibility Wind Speed Wind Dir Waves Ship Positions

Hong Xiang 2

Last reported at 2014-Dec-18 23:31 UTC. Time now 2014-Dec-19 06:32 UTC.
Position N 24°53' E 119°10'.

Length 96 m; draft 4.8 m.

Type: Ship (hazmat cat A). MMSI: 413413000.

Date/timePositionNaut miles runAvg speedWind from/ knotsBaromVisibWave heightAir tempDewpointWater temp
2014-Dec-18 23:31N 24°53' E 119°10'9 9.8
2014-Dec-18 22:33N 24°47' E 119°02'1010.2
2014-Dec-18 21:33N 24°40' E 118°54'2210.3
2014-Dec-18 19:24N 24°25' E 118°36'910.2
2014-Dec-18 18:31N 24°19' E 118°29'10 9.8
2014-Dec-18 17:29N 24°12' E 118°21'8 8.7
2014-Dec-18 16:33N 24°06' E 118°14'8 8.0
2014-Dec-18 15:33N 24°02' E 118°07'8 7.6
2014-Dec-18 14:33N 23°57' E 118°01'7 7.4
2014-Dec-18 13:33N 23°52' E 117°54'8 7.6
2014-Dec-18 12:32N 23°48' E 117°47'8 8.1
2014-Dec-18 11:33N 23°43' E 117°41'11 8.6
2014-Dec-18 10:19N 23°36' E 117°32'33 8.7
2014-Dec-18 06:32N 23°20' E 117°01'8 8.1
2014-Dec-18 05:33N 23°15' E 116°54'7 7.4
2014-Dec-18 04:33N 23°10' E 116°47'9 7.2
2014-Dec-18 03:22N 23°04' E 116°41'132 8.3
2014-Dec-17 11:27N 22°11' E 114°30'9 9.1
2014-Dec-17 10:30N 22°08' E 114°22'  
2014-Dec-14 08:33N 22°09' E 113°52'9 9.2
2014-Dec-14 07:33N 22°17' E 113°48'10 9.6
2014-Dec-14 06:33N 22°26' E 113°45'2210.4
2014-Dec-14 04:25N 22°47' E 113°38'910.2
2014-Dec-14 03:33N 22°55' E 113°34'2 2.1
2014-Dec-14 02:33N 22°57' E 113°33'0 0.0
2014-Dec-13 21:09N 22°57' E 113°33'0 0.0
2014-Dec-13 18:33N 22°57' E 113°33'0 0.0
2014-Dec-13 16:33N 22°57' E 113°33'0 0.0
2014-Dec-13 15:15N 22°57' E 113°33'0 0.0
2014-Dec-13 14:33N 22°57' E 113°33'0 0.0
2014-Dec-13 04:34N 22°57' E 113°33'2 2.4
2014-Dec-13 03:33N 22°55' E 113°34'7 7.0
2014-Dec-13 02:33N 22°48' E 113°36'16 7.9
2014-Dec-13 00:28N 22°33' E 113°44'7 7.8
2014-Dec-12 23:33N 22°26' E 113°45'8 7.9
2014-Dec-12 22:33N 22°19' E 113°48'8 7.9
2014-Dec-12 21:33N 22°11' E 113°50'9 9.2
2014-Dec-12 20:32N 22°09' E 114°00'15610.8
2014-Dec-12 06:10N 22°59' E 116°40'6 8.9
2014-Dec-12 05:32N 23°01' E 116°45'19 6.0
2014-Dec-12 02:26N 23°12' E 117°02'41 2.9
2014-Dec-11 12:30N 23°36' E 117°38'1111.6
2014-Dec-11 11:32N 23°43' E 117°47'1211.8
2014-Dec-11 10:33N 23°51' E 117°56'1212.1
2014-Dec-11 09:33N 23°59' E 118°06'1312.6
2014-Dec-11 08:33N 24°07' E 118°16'1412.1
2014-Dec-11 07:24N 24°17' E 118°27'2611.8
2014-Dec-11 05:11N 24°34' E 118°49'711.4
2014-Dec-11 04:33N 24°39' E 118°55'1111.2
2014-Dec-11 03:33N 24°47' E 119°04'340 7.6
2014-Dec-09 06:33N 29°37' E 122°24'1110.4
2014-Dec-09 05:32N 29°47' E 122°28'14 9.9
2014-Dec-09 04:08N 29°60' E 122°33'5 8.2
2014-Dec-09 03:29N 30°05' E 122°35'  

Dump ship's entire track history